sensor_id;sensor_type;location;lat;lon;timestamp;P1;durP1;ratioP1;P2;durP2;ratioP2
26622;SDS011;14254;50.968;5.366;2023-06-01T00:00:37;14.88;;;6.35;;
26622;SDS011;14254;50.968;5.366;2023-06-01T00:03:03;31.88;;;8.02;;
26622;SDS011;14254;50.968;5.366;2023-06-01T00:05:29;14.30;;;6.32;;
26622;SDS011;14254;50.968;5.366;2023-06-01T00:07:55;12.40;;;7.22;;
26622;SDS011;14254;50.968;5.366;2023-06-01T00:10:20;10.07;;;6.50;;
26622;SDS011;14254;50.968;5.366;2023-06-01T00:12:46;12.23;;;5.45;;
26622;SDS011;14254;50.968;5.366;2023-06-01T00:15:12;14.00;;;7.13;;
26622;SDS011;14254;50.968;5.366;2023-06-01T00:17:37;14.77;;;6.53;;
26622;SDS011;14254;50.968;5.366;2023-06-01T00:20:03;11.15;;;6.60;;
26622;SDS011;14254;50.968;5.366;2023-06-01T00:22:33;12.05;;;6.32;;
26622;SDS011;14254;50.968;5.366;2023-06-01T00:25:04;25.17;;;6.80;;
26622;SDS011;14254;50.968;5.366;2023-06-01T00:27:32;15.00;;;7.20;;
26622;SDS011;14254;50.968;5.366;2023-06-01T00:29:57;11.65;;;7.15;;
26622;SDS011;14254;50.968;5.366;2023-06-01T00:32:23;11.60;;;5.63;;
26622;SDS011;14254;50.968;5.366;2023-06-01T00:34:48;15.73;;;7.25;;
26622;SDS011;14254;50.968;5.366;2023-06-01T00:37:14;11.25;;;6.13;;
26622;SDS011;14254;50.968;5.366;2023-06-01T00:39:40;17.48;;;8.23;;
26622;SDS011;14254;50.968;5.366;2023-06-01T00:42:06;14.93;;;7.10;;
26622;SDS011;14254;50.968;5.366;2023-06-01T00:44:31;11.48;;;7.13;;
26622;SDS011;14254;50.968;5.366;2023-06-01T00:46:57;20.05;;;8.07;;
26622;SDS011;14254;50.968;5.366;2023-06-01T00:49:24;13.18;;;6.78;;
26622;SDS011;14254;50.968;5.366;2023-06-01T00:51:51;15.43;;;8.10;;
26622;SDS011;14254;50.968;5.366;2023-06-01T00:54:17;15.95;;;7.53;;
26622;SDS011;14254;50.968;5.366;2023-06-01T00:56:43;19.30;;;9.93;;
26622;SDS011;14254;50.968;5.366;2023-06-01T00:59:09;16.40;;;8.95;;
26622;SDS011;14254;50.968;5.366;2023-06-01T01:01:35;16.45;;;8.05;;
26622;SDS011;14254;50.968;5.366;2023-06-01T01:04:01;15.68;;;9.43;;
26622;SDS011;14254;50.968;5.366;2023-06-01T01:06:36;12.25;;;7.85;;
26622;SDS011;14254;50.968;5.366;2023-06-01T01:14:40;27.60;;;9.40;;
26622;SDS011;14254;50.968;5.366;2023-06-01T01:20:08;17.83;;;8.48;;
26622;SDS011;14254;50.968;5.366;2023-06-01T01:23:02;16.73;;;8.27;;
26622;SDS011;14254;50.968;5.366;2023-06-01T01:29:06;16.65;;;8.98;;
26622;SDS011;14254;50.968;5.366;2023-06-01T01:34:01;19.75;;;9.38;;
26622;SDS011;14254;50.968;5.366;2023-06-01T01:36:28;20.88;;;9.38;;
26622;SDS011;14254;50.968;5.366;2023-06-01T01:38:54;20.30;;;9.98;;
26622;SDS011;14254;50.968;5.366;2023-06-01T01:41:20;17.85;;;9.80;;
26622;SDS011;14254;50.968;5.366;2023-06-01T01:43:50;22.33;;;9.77;;
26622;SDS011;14254;50.968;5.366;2023-06-01T01:46:24;24.02;;;9.75;;
26622;SDS011;14254;50.968;5.366;2023-06-01T01:51:22;23.27;;;11.07;;
26622;SDS011;14254;50.968;5.366;2023-06-01T01:54:01;21.48;;;9.82;;
26622;SDS011;14254;50.968;5.366;2023-06-01T01:56:30;18.25;;;11.15;;
26622;SDS011;14254;50.968;5.366;2023-06-01T01:58:57;22.00;;;11.32;;
26622;SDS011;14254;50.968;5.366;2023-06-01T02:01:23;24.88;;;10.63;;
26622;SDS011;14254;50.968;5.366;2023-06-01T02:03:59;22.17;;;11.45;;
26622;SDS011;14254;50.968;5.366;2023-06-01T02:06:29;22.75;;;11.55;;
26622;SDS011;14254;50.968;5.366;2023-06-01T02:08:55;20.95;;;11.32;;
26622;SDS011;14254;50.968;5.366;2023-06-01T02:11:21;26.35;;;11.55;;
26622;SDS011;14254;50.968;5.366;2023-06-01T02:13:47;22.95;;;11.93;;
26622;SDS011;14254;50.968;5.366;2023-06-01T02:16:13;18.15;;;10.45;;
26622;SDS011;14254;50.968;5.366;2023-06-01T02:18:41;29.63;;;11.48;;
26622;SDS011;14254;50.968;5.366;2023-06-01T02:21:11;18.73;;;11.13;;
26622;SDS011;14254;50.968;5.366;2023-06-01T02:23:38;21.65;;;11.85;;
26622;SDS011;14254;50.968;5.366;2023-06-01T02:26:05;19.25;;;11.27;;
26622;SDS011;14254;50.968;5.366;2023-06-01T02:28:31;23.92;;;11.98;;
26622;SDS011;14254;50.968;5.366;2023-06-01T02:30:57;19.38;;;12.50;;
26622;SDS011;14254;50.968;5.366;2023-06-01T02:33:22;25.75;;;12.23;;
26622;SDS011;14254;50.968;5.366;2023-06-01T02:35:50;27.15;;;13.57;;
26622;SDS011;14254;50.968;5.366;2023-06-01T02:38:16;22.42;;;13.00;;
26622;SDS011;14254;50.968;5.366;2023-06-01T02:40:42;27.80;;;12.98;;
26622;SDS011;14254;50.968;5.366;2023-06-01T02:43:07;29.50;;;13.65;;
26622;SDS011;14254;50.968;5.366;2023-06-01T02:45:33;26.15;;;14.65;;
26622;SDS011;14254;50.968;5.366;2023-06-01T02:47:59;25.83;;;13.20;;
26622;SDS011;14254;50.968;5.366;2023-06-01T02:50:25;26.92;;;14.45;;
26622;SDS011;14254;50.968;5.366;2023-06-01T02:52:51;25.02;;;13.82;;
26622;SDS011;14254;50.968;5.366;2023-06-01T02:55:17;26.02;;;13.85;;
26622;SDS011;14254;50.968;5.366;2023-06-01T02:57:42;24.55;;;14.40;;
26622;SDS011;14254;50.968;5.366;2023-06-01T03:00:08;29.13;;;13.88;;
26622;SDS011;14254;50.968;5.366;2023-06-01T03:02:46;34.40;;;14.55;;
26622;SDS011;14254;50.968;5.366;2023-06-01T03:07:39;27.08;;;15.27;;
26622;SDS011;14254;50.968;5.366;2023-06-01T03:10:06;30.27;;;15.85;;
26622;SDS011;14254;50.968;5.366;2023-06-01T03:12:33;28.45;;;16.38;;
26622;SDS011;14254;50.968;5.366;2023-06-01T03:14:59;29.85;;;15.57;;
26622;SDS011;14254;50.968;5.366;2023-06-01T03:17:24;26.92;;;15.05;;
26622;SDS011;14254;50.968;5.366;2023-06-01T03:19:50;42.78;;;16.92;;
26622;SDS011;14254;50.968;5.366;2023-06-01T03:22:16;32.35;;;14.70;;
26622;SDS011;14254;50.968;5.366;2023-06-01T03:24:42;30.50;;;17.55;;
26622;SDS011;14254;50.968;5.366;2023-06-01T03:27:09;28.38;;;17.00;;
26622;SDS011;14254;50.968;5.366;2023-06-01T03:29:36;26.52;;;14.82;;
26622;SDS011;14254;50.968;5.366;2023-06-01T03:32:02;35.00;;;16.65;;
26622;SDS011;14254;50.968;5.366;2023-06-01T03:34:27;43.50;;;19.45;;
26622;SDS011;14254;50.968;5.366;2023-06-01T03:36:54;35.33;;;18.25;;
26622;SDS011;14254;50.968;5.366;2023-06-01T03:39:21;30.50;;;16.65;;
26622;SDS011;14254;50.968;5.366;2023-06-01T03:41:47;36.47;;;17.13;;
26622;SDS011;14254;50.968;5.366;2023-06-01T03:44:12;34.75;;;19.60;;
26622;SDS011;14254;50.968;5.366;2023-06-01T03:46:38;37.28;;;19.67;;
26622;SDS011;14254;50.968;5.366;2023-06-01T03:49:05;39.70;;;20.80;;
26622;SDS011;14254;50.968;5.366;2023-06-01T03:51:31;35.95;;;18.92;;
26622;SDS011;14254;50.968;5.366;2023-06-01T03:53:56;40.67;;;18.63;;
26622;SDS011;14254;50.968;5.366;2023-06-01T03:56:22;30.50;;;16.40;;
26622;SDS011;14254;50.968;5.366;2023-06-01T03:58:48;43.08;;;20.88;;
26622;SDS011;14254;50.968;5.366;2023-06-01T04:01:14;33.78;;;20.98;;
26622;SDS011;14254;50.968;5.366;2023-06-01T04:03:45;47.72;;;20.05;;
26622;SDS011;14254;50.968;5.366;2023-06-01T04:06:11;39.95;;;19.85;;
26622;SDS011;14254;50.968;5.366;2023-06-01T04:08:43;53.85;;;20.38;;
26622;SDS011;14254;50.968;5.366;2023-06-01T04:11:17;35.05;;;20.25;;
26622;SDS011;14254;50.968;5.366;2023-06-01T04:13:43;36.47;;;20.65;;
26622;SDS011;14254;50.968;5.366;2023-06-01T04:16:12;33.97;;;18.90;;
26622;SDS011;14254;50.968;5.366;2023-06-01T04:18:37;36.70;;;19.40;;
26622;SDS011;14254;50.968;5.366;2023-06-01T04:21:03;42.92;;;20.60;;
26622;SDS011;14254;50.968;5.366;2023-06-01T04:23:30;41.67;;;20.48;;
26622;SDS011;14254;50.968;5.366;2023-06-01T04:25:56;46.88;;;23.30;;
26622;SDS011;14254;50.968;5.366;2023-06-01T04:28:24;42.08;;;21.98;;
26622;SDS011;14254;50.968;5.366;2023-06-01T04:30:53;41.88;;;22.88;;
26622;SDS011;14254;50.968;5.366;2023-06-01T04:33:19;46.47;;;24.35;;
26622;SDS011;14254;50.968;5.366;2023-06-01T04:35:47;51.10;;;26.85;;
26622;SDS011;14254;50.968;5.366;2023-06-01T04:38:13;44.33;;;24.05;;
26622;SDS011;14254;50.968;5.366;2023-06-01T04:40:41;43.00;;;23.67;;
26622;SDS011;14254;50.968;5.366;2023-06-01T04:43:10;54.15;;;25.95;;
26622;SDS011;14254;50.968;5.366;2023-06-01T04:45:36;45.42;;;22.70;;
26622;SDS011;14254;50.968;5.366;2023-06-01T04:48:04;52.15;;;27.10;;
26622;SDS011;14254;50.968;5.366;2023-06-01T04:50:36;56.55;;;28.08;;
26622;SDS011;14254;50.968;5.366;2023-06-01T04:53:02;56.83;;;30.83;;
26622;SDS011;14254;50.968;5.366;2023-06-01T04:55:28;51.47;;;27.75;;
26622;SDS011;14254;50.968;5.366;2023-06-01T04:57:55;60.00;;;31.45;;
26622;SDS011;14254;50.968;5.366;2023-06-01T05:00:21;60.58;;;32.53;;
26622;SDS011;14254;50.968;5.366;2023-06-01T05:02:47;68.47;;;34.72;;
26622;SDS011;14254;50.968;5.366;2023-06-01T05:05:14;52.45;;;30.05;;
26622;SDS011;14254;50.968;5.366;2023-06-01T05:07:40;66.07;;;36.92;;
26622;SDS011;14254;50.968;5.366;2023-06-01T05:10:08;68.18;;;37.17;;
26622;SDS011;14254;50.968;5.366;2023-06-01T05:12:35;73.10;;;35.42;;
26622;SDS011;14254;50.968;5.366;2023-06-01T05:15:05;66.80;;;36.25;;
26622;SDS011;14254;50.968;5.366;2023-06-01T05:17:32;62.60;;;29.75;;
26622;SDS011;14254;50.968;5.366;2023-06-01T05:19:58;57.35;;;33.00;;
26622;SDS011;14254;50.968;5.366;2023-06-01T05:22:26;69.72;;;33.30;;
26622;SDS011;14254;50.968;5.366;2023-06-01T05:24:51;54.25;;;30.65;;
26622;SDS011;14254;50.968;5.366;2023-06-01T05:27:17;69.80;;;34.85;;
26622;SDS011;14254;50.968;5.366;2023-06-01T05:29:43;68.15;;;35.15;;
26622;SDS011;14254;50.968;5.366;2023-06-01T05:32:09;63.33;;;32.50;;
26622;SDS011;14254;50.968;5.366;2023-06-01T05:34:35;73.13;;;36.53;;
26622;SDS011;14254;50.968;5.366;2023-06-01T05:37:01;63.47;;;33.92;;
26622;SDS011;14254;50.968;5.366;2023-06-01T05:39:27;58.92;;;31.67;;
26622;SDS011;14254;50.968;5.366;2023-06-01T05:41:56;56.38;;;30.83;;
26622;SDS011;14254;50.968;5.366;2023-06-01T05:44:23;66.10;;;34.67;;
26622;SDS011;14254;50.968;5.366;2023-06-01T05:46:49;60.25;;;32.17;;
26622;SDS011;14254;50.968;5.366;2023-06-01T05:49:16;52.65;;;30.98;;
26622;SDS011;14254;50.968;5.366;2023-06-01T05:51:42;65.93;;;32.92;;
26622;SDS011;14254;50.968;5.366;2023-06-01T05:54:08;59.40;;;32.95;;
26622;SDS011;14254;50.968;5.366;2023-06-01T05:56:34;59.58;;;30.77;;
26622;SDS011;14254;50.968;5.366;2023-06-01T05:59:02;56.15;;;31.92;;
26622;SDS011;14254;50.968;5.366;2023-06-01T06:01:28;53.60;;;31.05;;
26622;SDS011;14254;50.968;5.366;2023-06-01T06:03:54;50.83;;;28.88;;
26622;SDS011;14254;50.968;5.366;2023-06-01T06:06:20;44.72;;;28.02;;
26622;SDS011;14254;50.968;5.366;2023-06-01T06:08:47;37.95;;;20.45;;
26622;SDS011;14254;50.968;5.366;2023-06-01T06:11:13;43.72;;;27.25;;
26622;SDS011;14254;50.968;5.366;2023-06-01T06:13:39;45.50;;;27.38;;
26622;SDS011;14254;50.968;5.366;2023-06-01T06:16:04;49.35;;;26.90;;
26622;SDS011;14254;50.968;5.366;2023-06-01T06:18:30;48.22;;;28.20;;
26622;SDS011;14254;50.968;5.366;2023-06-01T06:20:56;39.80;;;26.27;;
26622;SDS011;14254;50.968;5.366;2023-06-01T06:23:21;42.97;;;25.02;;
26622;SDS011;14254;50.968;5.366;2023-06-01T06:25:47;42.90;;;25.67;;
26622;SDS011;14254;50.968;5.366;2023-06-01T06:28:13;44.72;;;25.15;;
26622;SDS011;14254;50.968;5.366;2023-06-01T06:30:39;38.42;;;24.25;;
26622;SDS011;14254;50.968;5.366;2023-06-01T06:33:05;42.35;;;24.42;;
26622;SDS011;14254;50.968;5.366;2023-06-01T06:35:31;41.92;;;22.95;;
26622;SDS011;14254;50.968;5.366;2023-06-01T06:37:56;38.28;;;22.33;;
26622;SDS011;14254;50.968;5.366;2023-06-01T06:40:22;37.10;;;24.33;;
26622;SDS011;14254;50.968;5.366;2023-06-01T06:42:48;37.85;;;24.38;;
26622;SDS011;14254;50.968;5.366;2023-06-01T06:45:15;36.20;;;23.08;;
26622;SDS011;14254;50.968;5.366;2023-06-01T06:47:41;38.63;;;24.05;;
26622;SDS011;14254;50.968;5.366;2023-06-01T06:50:10;45.25;;;23.23;;
26622;SDS011;14254;50.968;5.366;2023-06-01T06:52:36;37.47;;;23.92;;
26622;SDS011;14254;50.968;5.366;2023-06-01T06:55:02;31.25;;;20.63;;
26622;SDS011;14254;50.968;5.366;2023-06-01T06:57:28;42.90;;;22.35;;
26622;SDS011;14254;50.968;5.366;2023-06-01T06:59:54;37.83;;;23.63;;
26622;SDS011;14254;50.968;5.366;2023-06-01T07:02:19;34.67;;;21.05;;
26622;SDS011;14254;50.968;5.366;2023-06-01T07:04:46;32.08;;;22.77;;
26622;SDS011;14254;50.968;5.366;2023-06-01T07:07:12;35.88;;;22.58;;
26622;SDS011;14254;50.968;5.366;2023-06-01T07:09:37;34.90;;;22.48;;
26622;SDS011;14254;50.968;5.366;2023-06-01T07:12:03;37.50;;;22.10;;
26622;SDS011;14254;50.968;5.366;2023-06-01T07:14:30;32.78;;;20.75;;
26622;SDS011;14254;50.968;5.366;2023-06-01T07:16:56;33.97;;;22.52;;
26622;SDS011;14254;50.968;5.366;2023-06-01T07:19:22;31.20;;;19.88;;
26622;SDS011;14254;50.968;5.366;2023-06-01T07:21:47;33.67;;;22.00;;
26622;SDS011;14254;50.968;5.366;2023-06-01T07:24:13;33.10;;;20.17;;
26622;SDS011;14254;50.968;5.366;2023-06-01T07:26:39;32.88;;;21.52;;
26622;SDS011;14254;50.968;5.366;2023-06-01T07:29:05;28.10;;;18.92;;
26622;SDS011;14254;50.968;5.366;2023-06-01T07:31:31;34.47;;;21.90;;
26622;SDS011;14254;50.968;5.366;2023-06-01T07:33:58;26.75;;;18.23;;
26622;SDS011;14254;50.968;5.366;2023-06-01T07:36:23;35.53;;;20.85;;
26622;SDS011;14254;50.968;5.366;2023-06-01T07:38:49;32.85;;;20.58;;
26622;SDS011;14254;50.968;5.366;2023-06-01T07:41:18;29.10;;;20.70;;
26622;SDS011;14254;50.968;5.366;2023-06-01T07:43:43;41.17;;;21.02;;
26622;SDS011;14254;50.968;5.366;2023-06-01T07:46:10;32.63;;;18.63;;
26622;SDS011;14254;50.968;5.366;2023-06-01T07:48:36;32.10;;;19.60;;
26622;SDS011;14254;50.968;5.366;2023-06-01T07:51:04;31.63;;;19.10;;
26622;SDS011;14254;50.968;5.366;2023-06-01T07:53:31;29.67;;;16.92;;
26622;SDS011;14254;50.968;5.366;2023-06-01T07:55:57;26.42;;;17.48;;
26622;SDS011;14254;50.968;5.366;2023-06-01T07:58:23;25.35;;;17.48;;
26622;SDS011;14254;50.968;5.366;2023-06-01T08:00:52;25.42;;;18.48;;
26622;SDS011;14254;50.968;5.366;2023-06-01T08:03:18;27.52;;;16.52;;
26622;SDS011;14254;50.968;5.366;2023-06-01T08:05:45;32.97;;;18.48;;
26622;SDS011;14254;50.968;5.366;2023-06-01T08:08:11;28.35;;;18.98;;
26622;SDS011;14254;50.968;5.366;2023-06-01T08:10:36;29.00;;;15.73;;
26622;SDS011;14254;50.968;5.366;2023-06-01T08:13:04;30.23;;;18.95;;
26622;SDS011;14254;50.968;5.366;2023-06-01T08:15:32;28.85;;;18.13;;
26622;SDS011;14254;50.968;5.366;2023-06-01T08:17:59;29.55;;;19.00;;
26622;SDS011;14254;50.968;5.366;2023-06-01T08:20:25;26.73;;;17.67;;
26622;SDS011;14254;50.968;5.366;2023-06-01T08:22:51;28.48;;;18.50;;
26622;SDS011;14254;50.968;5.366;2023-06-01T08:25:17;28.58;;;17.05;;
26622;SDS011;14254;50.968;5.366;2023-06-01T08:27:43;22.77;;;18.08;;
26622;SDS011;14254;50.968;5.366;2023-06-01T08:30:09;25.02;;;16.33;;
26622;SDS011;14254;50.968;5.366;2023-06-01T08:32:36;24.63;;;16.85;;
26622;SDS011;14254;50.968;5.366;2023-06-01T08:35:01;27.92;;;16.63;;
26622;SDS011;14254;50.968;5.366;2023-06-01T08:37:27;25.95;;;16.67;;
26622;SDS011;14254;50.968;5.366;2023-06-01T08:39:54;22.75;;;13.55;;
26622;SDS011;14254;50.968;5.366;2023-06-01T08:42:30;30.58;;;16.67;;
26622;SDS011;14254;50.968;5.366;2023-06-01T08:45:04;27.63;;;16.58;;
26622;SDS011;14254;50.968;5.366;2023-06-01T08:47:31;24.23;;;14.43;;
26622;SDS011;14254;50.968;5.366;2023-06-01T08:49:58;34.20;;;16.30;;
26622;SDS011;14254;50.968;5.366;2023-06-01T08:52:25;30.73;;;15.60;;
26622;SDS011;14254;50.968;5.366;2023-06-01T08:54:53;25.08;;;15.70;;
26622;SDS011;14254;50.968;5.366;2023-06-01T08:57:19;26.02;;;15.70;;
26622;SDS011;14254;50.968;5.366;2023-06-01T08:59:45;23.95;;;15.10;;
26622;SDS011;14254;50.968;5.366;2023-06-01T09:02:12;20.35;;;15.43;;
26622;SDS011;14254;50.968;5.366;2023-06-01T09:04:39;23.30;;;15.20;;
26622;SDS011;14254;50.968;5.366;2023-06-01T09:07:07;24.27;;;15.15;;
26622;SDS011;14254;50.968;5.366;2023-06-01T09:09:33;28.13;;;14.90;;
26622;SDS011;14254;50.968;5.366;2023-06-01T09:14:51;24.63;;;15.05;;
26622;SDS011;14254;50.968;5.366;2023-06-01T09:17:38;23.80;;;15.57;;
26622;SDS011;14254;50.968;5.366;2023-06-01T09:20:05;20.02;;;14.35;;
26622;SDS011;14254;50.968;5.366;2023-06-01T09:22:37;26.92;;;15.65;;
26622;SDS011;14254;50.968;5.366;2023-06-01T09:25:11;28.20;;;17.00;;
26622;SDS011;14254;50.968;5.366;2023-06-01T09:27:44;24.77;;;16.55;;
26622;SDS011;14254;50.968;5.366;2023-06-01T09:30:11;25.67;;;15.52;;
26622;SDS011;14254;50.968;5.366;2023-06-01T09:32:38;24.35;;;15.57;;
26622;SDS011;14254;50.968;5.366;2023-06-01T09:35:04;24.80;;;15.45;;
26622;SDS011;14254;50.968;5.366;2023-06-01T09:37:32;28.88;;;14.40;;
26622;SDS011;14254;50.968;5.366;2023-06-01T09:40:02;26.67;;;15.80;;
26622;SDS011;14254;50.968;5.366;2023-06-01T09:42:40;25.80;;;15.48;;
26622;SDS011;14254;50.968;5.366;2023-06-01T09:45:18;23.63;;;14.73;;
26622;SDS011;14254;50.968;5.366;2023-06-01T09:47:45;21.10;;;14.85;;
26622;SDS011;14254;50.968;5.366;2023-06-01T09:50:15;27.80;;;15.50;;
26622;SDS011;14254;50.968;5.366;2023-06-01T09:52:57;23.08;;;14.95;;
26622;SDS011;14254;50.968;5.366;2023-06-01T09:55:24;21.42;;;14.85;;
26622;SDS011;14254;50.968;5.366;2023-06-01T09:57:49;24.20;;;15.45;;
26622;SDS011;14254;50.968;5.366;2023-06-01T10:00:24;23.25;;;14.52;;
26622;SDS011;14254;50.968;5.366;2023-06-01T10:02:53;22.80;;;14.95;;
26622;SDS011;14254;50.968;5.366;2023-06-01T10:05:19;21.65;;;14.32;;
26622;SDS011;14254;50.968;5.366;2023-06-01T10:07:45;25.90;;;14.73;;
26622;SDS011;14254;50.968;5.366;2023-06-01T10:10:13;23.90;;;15.07;;
26622;SDS011;14254;50.968;5.366;2023-06-01T10:12:39;22.92;;;13.88;;
26622;SDS011;14254;50.968;5.366;2023-06-01T10:15:05;19.58;;;14.23;;
26622;SDS011;14254;50.968;5.366;2023-06-01T10:17:32;25.08;;;15.43;;
26622;SDS011;14254;50.968;5.366;2023-06-01T10:20:01;30.10;;;13.43;;
26622;SDS011;14254;50.968;5.366;2023-06-01T10:22:27;28.50;;;15.18;;
26622;SDS011;14254;50.968;5.366;2023-06-01T10:24:57;24.83;;;14.38;;
26622;SDS011;14254;50.968;5.366;2023-06-01T10:30:39;23.52;;;14.65;;
26622;SDS011;14254;50.968;5.366;2023-06-01T10:33:05;23.23;;;15.27;;
26622;SDS011;14254;50.968;5.366;2023-06-01T10:40:35;22.80;;;14.93;;
26622;SDS011;14254;50.968;5.366;2023-06-01T10:43:01;29.52;;;14.63;;
26622;SDS011;14254;50.968;5.366;2023-06-01T10:48:00;22.80;;;16.15;;
26622;SDS011;14254;50.968;5.366;2023-06-01T10:50:27;27.77;;;16.27;;
26622;SDS011;14254;50.968;5.366;2023-06-01T10:52:56;25.77;;;15.73;;
26622;SDS011;14254;50.968;5.366;2023-06-01T10:55:42;24.55;;;16.80;;
26622;SDS011;14254;50.968;5.366;2023-06-01T10:58:20;29.75;;;17.35;;
26622;SDS011;14254;50.968;5.366;2023-06-01T11:00:51;33.38;;;16.33;;
26622;SDS011;14254;50.968;5.366;2023-06-01T11:03:41;24.02;;;15.73;;
26622;SDS011;14254;50.968;5.366;2023-06-01T11:06:22;24.15;;;14.75;;
26622;SDS011;14254;50.968;5.366;2023-06-01T11:11:17;26.58;;;15.52;;
26622;SDS011;14254;50.968;5.366;2023-06-01T11:13:45;25.02;;;15.68;;
26622;SDS011;14254;50.968;5.366;2023-06-01T11:16:31;20.00;;;14.50;;
26622;SDS011;14254;50.968;5.366;2023-06-01T11:19:00;24.23;;;14.85;;
26622;SDS011;14254;50.968;5.366;2023-06-01T11:23:54;27.27;;;15.10;;
26622;SDS011;14254;50.968;5.366;2023-06-01T11:26:22;24.15;;;15.40;;
26622;SDS011;14254;50.968;5.366;2023-06-01T11:28:50;22.58;;;12.90;;
26622;SDS011;14254;50.968;5.366;2023-06-01T11:31:18;18.92;;;13.63;;
26622;SDS011;14254;50.968;5.366;2023-06-01T11:33:48;20.30;;;12.23;;
26622;SDS011;14254;50.968;5.366;2023-06-01T11:36:21;21.02;;;12.82;;
26622;SDS011;14254;50.968;5.366;2023-06-01T11:38:51;28.00;;;13.02;;
26622;SDS011;14254;50.968;5.366;2023-06-01T11:41:21;21.33;;;12.70;;
26622;SDS011;14254;50.968;5.366;2023-06-01T11:43:54;17.60;;;12.00;;
26622;SDS011;14254;50.968;5.366;2023-06-01T11:46:23;25.35;;;12.55;;
26622;SDS011;14254;50.968;5.366;2023-06-01T11:49:03;20.02;;;12.35;;
26622;SDS011;14254;50.968;5.366;2023-06-01T11:51:31;19.35;;;13.07;;
26622;SDS011;14254;50.968;5.366;2023-06-01T11:54:07;20.20;;;14.02;;
26622;SDS011;14254;50.968;5.366;2023-06-01T11:56:36;21.67;;;13.45;;
26622;SDS011;14254;50.968;5.366;2023-06-01T11:59:04;18.63;;;12.20;;
26622;SDS011;14254;50.968;5.366;2023-06-01T12:01:43;19.10;;;11.80;;
26622;SDS011;14254;50.968;5.366;2023-06-01T12:04:18;22.25;;;13.55;;
26622;SDS011;14254;50.968;5.366;2023-06-01T12:06:45;17.75;;;12.90;;
26622;SDS011;14254;50.968;5.366;2023-06-01T12:09:12;16.48;;;11.75;;
26622;SDS011;14254;50.968;5.366;2023-06-01T12:11:40;17.52;;;12.68;;
26622;SDS011;14254;50.968;5.366;2023-06-01T12:14:08;18.95;;;13.02;;
26622;SDS011;14254;50.968;5.366;2023-06-01T12:16:50;20.27;;;12.95;;
26622;SDS011;14254;50.968;5.366;2023-06-01T12:19:18;16.33;;;12.02;;
26622;SDS011;14254;50.968;5.366;2023-06-01T12:21:49;17.60;;;11.10;;
26622;SDS011;14254;50.968;5.366;2023-06-01T12:24:17;20.30;;;12.50;;
26622;SDS011;14254;50.968;5.366;2023-06-01T12:26:43;17.58;;;12.13;;
26622;SDS011;14254;50.968;5.366;2023-06-01T12:29:09;19.80;;;11.57;;
26622;SDS011;14254;50.968;5.366;2023-06-01T12:31:35;20.95;;;12.57;;
26622;SDS011;14254;50.968;5.366;2023-06-01T12:34:01;18.15;;;12.25;;
26622;SDS011;14254;50.968;5.366;2023-06-01T12:38:56;14.27;;;11.63;;
26622;SDS011;14254;50.968;5.366;2023-06-01T12:41:24;20.55;;;11.85;;
26622;SDS011;14254;50.968;5.366;2023-06-01T12:43:50;19.70;;;11.70;;
26622;SDS011;14254;50.968;5.366;2023-06-01T12:46:21;19.02;;;12.00;;
26622;SDS011;14254;50.968;5.366;2023-06-01T12:48:48;19.80;;;13.48;;
26622;SDS011;14254;50.968;5.366;2023-06-01T12:51:15;18.88;;;10.77;;
26622;SDS011;14254;50.968;5.366;2023-06-01T12:53:41;18.13;;;12.00;;
26622;SDS011;14254;50.968;5.366;2023-06-01T12:56:07;120.32;;;20.70;;
26622;SDS011;14254;50.968;5.366;2023-06-01T12:58:33;49.10;;;12.85;;
26622;SDS011;14254;50.968;5.366;2023-06-01T13:00:59;17.23;;;10.40;;
26622;SDS011;14254;50.968;5.366;2023-06-01T13:03:25;17.25;;;11.15;;
26622;SDS011;14254;50.968;5.366;2023-06-01T13:05:51;22.55;;;11.93;;
26622;SDS011;14254;50.968;5.366;2023-06-01T13:08:17;17.83;;;11.18;;
26622;SDS011;14254;50.968;5.366;2023-06-01T13:10:43;17.63;;;11.68;;
26622;SDS011;14254;50.968;5.366;2023-06-01T13:13:08;21.10;;;12.20;;
26622;SDS011;14254;50.968;5.366;2023-06-01T13:15:36;21.63;;;11.32;;
26622;SDS011;14254;50.968;5.366;2023-06-01T13:18:05;17.88;;;11.82;;
26622;SDS011;14254;50.968;5.366;2023-06-01T13:20:30;18.52;;;11.85;;
26622;SDS011;14254;50.968;5.366;2023-06-01T13:22:56;20.38;;;10.32;;
26622;SDS011;14254;50.968;5.366;2023-06-01T13:25:22;22.27;;;12.35;;
26622;SDS011;14254;50.968;5.366;2023-06-01T13:27:48;23.58;;;12.85;;
26622;SDS011;14254;50.968;5.366;2023-06-01T13:30:14;16.20;;;11.02;;
26622;SDS011;14254;50.968;5.366;2023-06-01T13:32:40;14.88;;;11.00;;
26622;SDS011;14254;50.968;5.366;2023-06-01T13:35:06;18.85;;;12.60;;
26622;SDS011;14254;50.968;5.366;2023-06-01T13:37:32;15.82;;;10.07;;
26622;SDS011;14254;50.968;5.366;2023-06-01T13:39:58;20.77;;;9.32;;
26622;SDS011;14254;50.968;5.366;2023-06-01T13:42:23;18.15;;;12.48;;
26622;SDS011;14254;50.968;5.366;2023-06-01T13:44:49;21.35;;;13.02;;
26622;SDS011;14254;50.968;5.366;2023-06-01T13:47:16;21.85;;;12.00;;
26622;SDS011;14254;50.968;5.366;2023-06-01T13:49:42;19.95;;;12.13;;
26622;SDS011;14254;50.968;5.366;2023-06-01T13:52:09;19.95;;;12.18;;
26622;SDS011;14254;50.968;5.366;2023-06-01T13:54:34;20.13;;;11.38;;
26622;SDS011;14254;50.968;5.366;2023-06-01T13:57:01;16.60;;;10.65;;
26622;SDS011;14254;50.968;5.366;2023-06-01T13:59:30;14.70;;;10.43;;
26622;SDS011;14254;50.968;5.366;2023-06-01T14:01:58;17.02;;;10.57;;
26622;SDS011;14254;50.968;5.366;2023-06-01T14:04:24;17.50;;;10.68;;
26622;SDS011;14254;50.968;5.366;2023-06-01T14:06:50;18.63;;;10.57;;
26622;SDS011;14254;50.968;5.366;2023-06-01T14:09:19;19.15;;;11.65;;
26622;SDS011;14254;50.968;5.366;2023-06-01T14:11:44;15.90;;;11.00;;
26622;SDS011;14254;50.968;5.366;2023-06-01T14:14:10;21.05;;;11.00;;
26622;SDS011;14254;50.968;5.366;2023-06-01T14:16:36;15.88;;;10.80;;
26622;SDS011;14254;50.968;5.366;2023-06-01T14:19:02;16.35;;;10.77;;
26622;SDS011;14254;50.968;5.366;2023-06-01T14:21:28;21.65;;;11.65;;
26622;SDS011;14254;50.968;5.366;2023-06-01T14:23:55;18.92;;;11.02;;
26622;SDS011;14254;50.968;5.366;2023-06-01T14:26:21;20.33;;;10.65;;
26622;SDS011;14254;50.968;5.366;2023-06-01T14:28:47;17.40;;;11.02;;
26622;SDS011;14254;50.968;5.366;2023-06-01T14:31:13;21.33;;;10.80;;
26622;SDS011;14254;50.968;5.366;2023-06-01T14:33:38;18.02;;;10.75;;
26622;SDS011;14254;50.968;5.366;2023-06-01T14:36:04;18.70;;;9.23;;
26622;SDS011;14254;50.968;5.366;2023-06-01T14:38:30;16.50;;;9.80;;
26622;SDS011;14254;50.968;5.366;2023-06-01T14:40:56;21.25;;;11.00;;
26622;SDS011;14254;50.968;5.366;2023-06-01T14:43:22;16.73;;;11.23;;
26622;SDS011;14254;50.968;5.366;2023-06-01T14:45:48;17.13;;;11.50;;
26622;SDS011;14254;50.968;5.366;2023-06-01T14:48:13;22.13;;;13.38;;
26622;SDS011;14254;50.968;5.366;2023-06-01T14:50:39;21.50;;;11.30;;
26622;SDS011;14254;50.968;5.366;2023-06-01T14:53:05;20.83;;;11.05;;
26622;SDS011;14254;50.968;5.366;2023-06-01T14:55:31;20.52;;;11.57;;
26622;SDS011;14254;50.968;5.366;2023-06-01T14:57:57;13.00;;;8.50;;
26622;SDS011;14254;50.968;5.366;2023-06-01T15:00:23;15.55;;;9.40;;
26622;SDS011;14254;50.968;5.366;2023-06-01T15:02:48;12.23;;;8.13;;
26622;SDS011;14254;50.968;5.366;2023-06-01T15:05:15;15.02;;;7.47;;